sensor_id;sensor_type;location;lat;lon;timestamp;P1;P2;P0
80643;PMS5003;70010;60.224;24.712;2023-05-09T00:00:06;8;6;
80643;PMS5003;70010;60.224;24.712;2023-05-09T00:02:31;7;7;
80643;PMS5003;70010;60.224;24.712;2023-05-09T00:04:56;11;7;
80643;PMS5003;70010;60.224;24.712;2023-05-09T00:07:22;8;7;
80643;PMS5003;70010;60.224;24.712;2023-05-09T00:09:47;5;5;
80643;PMS5003;70010;60.224;24.712;2023-05-09T00:12:12;10;8;
80643;PMS5003;70010;60.224;24.712;2023-05-09T00:14:38;7;7;
80643;PMS5003;70010;60.224;24.712;2023-05-09T00:17:03;8;7;
80643;PMS5003;70010;60.224;24.712;2023-05-09T00:19:29;7;7;
80643;PMS5003;70010;60.224;24.712;2023-05-09T00:21:54;7;7;
80643;PMS5003;70010;60.224;24.712;2023-05-09T00:24:20;8;5;
80643;PMS5003;70010;60.224;24.712;2023-05-09T00:26:45;5;5;
80643;PMS5003;70010;60.224;24.712;2023-05-09T00:29:11;4;4;
80643;PMS5003;70010;60.224;24.712;2023-05-09T00:31:36;5;5;
80643;PMS5003;70010;60.224;24.712;2023-05-09T00:34:01;7;6;
80643;PMS5003;70010;60.224;24.712;2023-05-09T00:36:27;5;5;
80643;PMS5003;70010;60.224;24.712;2023-05-09T00:38:52;10;8;
80643;PMS5003;70010;60.224;24.712;2023-05-09T00:41:17;8;7;
80643;PMS5003;70010;60.224;24.712;2023-05-09T00:43:43;9;9;
80643;PMS5003;70010;60.224;24.712;2023-05-09T00:46:08;6;6;
80643;PMS5003;70010;60.224;24.712;2023-05-09T00:48:33;10;10;
80643;PMS5003;70010;60.224;24.712;2023-05-09T00:50:58;10;8;
80643;PMS5003;70010;60.224;24.712;2023-05-09T00:53:24;6;6;
80643;PMS5003;70010;60.224;24.712;2023-05-09T00:55:49;7;6;
80643;PMS5003;70010;60.224;24.712;2023-05-09T00:58:14;10;7;
80643;PMS5003;70010;60.224;24.712;2023-05-09T01:00:40;9;7;
80643;PMS5003;70010;60.224;24.712;2023-05-09T01:03:05;6;5;
80643;PMS5003;70010;60.224;24.712;2023-05-09T01:05:32;13;9;
80643;PMS5003;70010;60.224;24.712;2023-05-09T01:07:58;9;8;
80643;PMS5003;70010;60.224;24.712;2023-05-09T01:10:26;7;6;
80643;PMS5003;70010;60.224;24.712;2023-05-09T01:12:48;10;8;
80643;PMS5003;70010;60.224;24.712;2023-05-09T01:15:12;6;6;
80643;PMS5003;70010;60.224;24.712;2023-05-09T01:17:38;6;6;
80643;PMS5003;70010;60.224;24.712;2023-05-09T01:20:05;10;7;
80643;PMS5003;70010;60.224;24.712;2023-05-09T01:22:28;10;7;
80643;PMS5003;70010;60.224;24.712;2023-05-09T01:25:00;8;7;
80643;PMS5003;70010;60.224;24.712;2023-05-09T01:27:20;8;7;
80643;PMS5003;70010;60.224;24.712;2023-05-09T01:29:46;7;7;
80643;PMS5003;70010;60.224;24.712;2023-05-09T01:32:11;9;9;
80643;PMS5003;70010;60.224;24.712;2023-05-09T01:34:35;8;8;
80643;PMS5003;70010;60.224;24.712;2023-05-09T01:37:01;6;6;
80643;PMS5003;70010;60.224;24.712;2023-05-09T01:39:26;8;8;
80643;PMS5003;70010;60.224;24.712;2023-05-09T01:41:52;9;8;
80643;PMS5003;70010;60.224;24.712;2023-05-09T01:44:17;7;7;
80643;PMS5003;70010;60.224;24.712;2023-05-09T01:46:43;8;8;
80643;PMS5003;70010;60.224;24.712;2023-05-09T01:49:08;7;6;
80643;PMS5003;70010;60.224;24.712;2023-05-09T01:51:33;12;12;
80643;PMS5003;70010;60.224;24.712;2023-05-09T01:53:59;9;9;
80643;PMS5003;70010;60.224;24.712;2023-05-09T01:56:24;5;5;
80643;PMS5003;70010;60.224;24.712;2023-05-09T01:58:50;8;7;
80643;PMS5003;70010;60.224;24.712;2023-05-09T02:01:15;7;6;
80643;PMS5003;70010;60.224;24.712;2023-05-09T02:03:40;10;8;
80643;PMS5003;70010;60.224;24.712;2023-05-09T02:06:06;8;8;
80643;PMS5003;70010;60.224;24.712;2023-05-09T02:08:31;9;7;
80643;PMS5003;70010;60.224;24.712;2023-05-09T02:10:57;10;10;
80643;PMS5003;70010;60.224;24.712;2023-05-09T02:13:22;9;8;
80643;PMS5003;70010;60.224;24.712;2023-05-09T02:15:48;10;8;
80643;PMS5003;70010;60.224;24.712;2023-05-09T02:18:13;8;8;
80643;PMS5003;70010;60.224;24.712;2023-05-09T02:20:38;11;10;
80643;PMS5003;70010;60.224;24.712;2023-05-09T02:23:04;10;7;
80643;PMS5003;70010;60.224;24.712;2023-05-09T02:25:29;13;9;
80643;PMS5003;70010;60.224;24.712;2023-05-09T02:27:55;8;7;
80643;PMS5003;70010;60.224;24.712;2023-05-09T02:30:20;8;8;
80643;PMS5003;70010;60.224;24.712;2023-05-09T02:32:45;9;9;
80643;PMS5003;70010;60.224;24.712;2023-05-09T02:35:11;8;8;
80643;PMS5003;70010;60.224;24.712;2023-05-09T02:37:36;9;9;
80643;PMS5003;70010;60.224;24.712;2023-05-09T02:40:01;9;8;
80643;PMS5003;70010;60.224;24.712;2023-05-09T02:42:27;10;8;
80643;PMS5003;70010;60.224;24.712;2023-05-09T02:44:53;11;9;
80643;PMS5003;70010;60.224;24.712;2023-05-09T02:47:17;15;15;
80643;PMS5003;70010;60.224;24.712;2023-05-09T02:49:43;8;8;
80643;PMS5003;70010;60.224;24.712;2023-05-09T02:52:08;11;8;
80643;PMS5003;70010;60.224;24.712;2023-05-09T02:54:33;15;12;
80643;PMS5003;70010;60.224;24.712;2023-05-09T02:56:58;11;10;
80643;PMS5003;70010;60.224;24.712;2023-05-09T02:59:24;10;9;
80643;PMS5003;70010;60.224;24.712;2023-05-09T03:01:49;8;8;
80643;PMS5003;70010;60.224;24.712;2023-05-09T03:04:15;9;7;
80643;PMS5003;70010;60.224;24.712;2023-05-09T03:06:40;8;8;
80643;PMS5003;70010;60.224;24.712;2023-05-09T03:09:06;11;10;
80643;PMS5003;70010;60.224;24.712;2023-05-09T03:11:31;9;9;
80643;PMS5003;70010;60.224;24.712;2023-05-09T03:13:57;7;7;
80643;PMS5003;70010;60.224;24.712;2023-05-09T03:16:22;9;8;
80643;PMS5003;70010;60.224;24.712;2023-05-09T03:18:47;10;9;
80643;PMS5003;70010;60.224;24.712;2023-05-09T03:21:13;9;9;
80643;PMS5003;70010;60.224;24.712;2023-05-09T03:23:38;10;8;
80643;PMS5003;70010;60.224;24.712;2023-05-09T03:26:04;15;12;
80643;PMS5003;70010;60.224;24.712;2023-05-09T03:28:29;10;9;
80643;PMS5003;70010;60.224;24.712;2023-05-09T03:30:54;13;12;
80643;PMS5003;70010;60.224;24.712;2023-05-09T03:33:20;21;15;
80643;PMS5003;70010;60.224;24.712;2023-05-09T03:35:46;15;14;
80643;PMS5003;70010;60.224;24.712;2023-05-09T03:38:11;13;9;
80643;PMS5003;70010;60.224;24.712;2023-05-09T03:40:37;12;8;
80643;PMS5003;70010;60.224;24.712;2023-05-09T03:43:02;13;12;
80643;PMS5003;70010;60.224;24.712;2023-05-09T03:45:27;12;11;
80643;PMS5003;70010;60.224;24.712;2023-05-09T03:47:53;15;14;
80643;PMS5003;70010;60.224;24.712;2023-05-09T03:50:18;16;14;
80643;PMS5003;70010;60.224;24.712;2023-05-09T03:52:44;11;11;
80643;PMS5003;70010;60.224;24.712;2023-05-09T03:55:09;15;13;
80643;PMS5003;70010;60.224;24.712;2023-05-09T03:57:35;12;12;
80643;PMS5003;70010;60.224;24.712;2023-05-09T04:00:00;13;12;
80643;PMS5003;70010;60.224;24.712;2023-05-09T04:02:25;8;8;
80643;PMS5003;70010;60.224;24.712;2023-05-09T04:04:51;12;10;
80643;PMS5003;70010;60.224;24.712;2023-05-09T04:07:16;11;9;
80643;PMS5003;70010;60.224;24.712;2023-05-09T04:09:41;13;11;
80643;PMS5003;70010;60.224;24.712;2023-05-09T04:12:06;13;8;
80643;PMS5003;70010;60.224;24.712;2023-05-09T04:14:32;10;10;
80643;PMS5003;70010;60.224;24.712;2023-05-09T04:16:57;8;8;
80643;PMS5003;70010;60.224;24.712;2023-05-09T04:19:22;15;15;
80643;PMS5003;70010;60.224;24.712;2023-05-09T04:21:47;11;9;
80643;PMS5003;70010;60.224;24.712;2023-05-09T04:24:13;6;6;
80643;PMS5003;70010;60.224;24.712;2023-05-09T04:26:38;10;6;
80643;PMS5003;70010;60.224;24.712;2023-05-09T04:29:03;7;7;
80643;PMS5003;70010;60.224;24.712;2023-05-09T04:31:28;6;6;
80643;PMS5003;70010;60.224;24.712;2023-05-09T04:33:54;6;6;
80643;PMS5003;70010;60.224;24.712;2023-05-09T04:36:19;9;8;
80643;PMS5003;70010;60.224;24.712;2023-05-09T04:38:45;6;6;
80643;PMS5003;70010;60.224;24.712;2023-05-09T04:41:10;7;6;
80643;PMS5003;70010;60.224;24.712;2023-05-09T04:43:35;7;7;
80643;PMS5003;70010;60.224;24.712;2023-05-09T04:46:00;8;6;
80643;PMS5003;70010;60.224;24.712;2023-05-09T04:48:26;7;6;
80643;PMS5003;70010;60.224;24.712;2023-05-09T04:50:51;5;5;
80643;PMS5003;70010;60.224;24.712;2023-05-09T04:53:17;5;5;
80643;PMS5003;70010;60.224;24.712;2023-05-09T04:55:42;4;4;
80643;PMS5003;70010;60.224;24.712;2023-05-09T04:58:07;6;6;
80643;PMS5003;70010;60.224;24.712;2023-05-09T05:00:33;10;7;
80643;PMS5003;70010;60.224;24.712;2023-05-09T05:02:58;6;6;
80643;PMS5003;70010;60.224;24.712;2023-05-09T05:05:24;5;5;
80643;PMS5003;70010;60.224;24.712;2023-05-09T05:07:49;9;7;
80643;PMS5003;70010;60.224;24.712;2023-05-09T05:10:14;7;7;
80643;PMS5003;70010;60.224;24.712;2023-05-09T05:12:40;5;5;
80643;PMS5003;70010;60.224;24.712;2023-05-09T05:15:05;8;7;
80643;PMS5003;70010;60.224;24.712;2023-05-09T05:17:30;6;6;
80643;PMS5003;70010;60.224;24.712;2023-05-09T05:19:56;5;5;
80643;PMS5003;70010;60.224;24.712;2023-05-09T05:22:21;5;4;
80643;PMS5003;70010;60.224;24.712;2023-05-09T05:24:46;3;3;
80643;PMS5003;70010;60.224;24.712;2023-05-09T05:27:12;6;6;
80643;PMS5003;70010;60.224;24.712;2023-05-09T05:29:37;6;6;
80643;PMS5003;70010;60.224;24.712;2023-05-09T05:32:02;5;4;
80643;PMS5003;70010;60.224;24.712;2023-05-09T05:34:28;6;5;
80643;PMS5003;70010;60.224;24.712;2023-05-09T05:36:53;8;6;
80643;PMS5003;70010;60.224;24.712;2023-05-09T05:39:18;7;7;
80643;PMS5003;70010;60.224;24.712;2023-05-09T05:41:44;8;6;
80643;PMS5003;70010;60.224;24.712;2023-05-09T05:44:09;6;4;
80643;PMS5003;70010;60.224;24.712;2023-05-09T05:46:35;4;4;
80643;PMS5003;70010;60.224;24.712;2023-05-09T05:49:00;5;4;
80643;PMS5003;70010;60.224;24.712;2023-05-09T05:51:25;7;5;
80643;PMS5003;70010;60.224;24.712;2023-05-09T05:53:51;6;5;
80643;PMS5003;70010;60.224;24.712;2023-05-09T05:56:16;5;5;
80643;PMS5003;70010;60.224;24.712;2023-05-09T05:58:41;5;5;
80643;PMS5003;70010;60.224;24.712;2023-05-09T06:01:07;5;5;
80643;PMS5003;70010;60.224;24.712;2023-05-09T06:03:32;6;6;
80643;PMS5003;70010;60.224;24.712;2023-05-09T06:05:58;9;6;
80643;PMS5003;70010;60.224;24.712;2023-05-09T06:08:23;6;5;
80643;PMS5003;70010;60.224;24.712;2023-05-09T06:10:48;5;4;
80643;PMS5003;70010;60.224;24.712;2023-05-09T06:13:14;5;5;
80643;PMS5003;70010;60.224;24.712;2023-05-09T06:15:39;6;4;
80643;PMS5003;70010;60.224;24.712;2023-05-09T06:18:04;6;6;
80643;PMS5003;70010;60.224;24.712;2023-05-09T06:20:30;5;5;
80643;PMS5003;70010;60.224;24.712;2023-05-09T06:22:55;7;5;
80643;PMS5003;70010;60.224;24.712;2023-05-09T06:25:21;7;6;
80643;PMS5003;70010;60.224;24.712;2023-05-09T06:27:46;4;4;
80643;PMS5003;70010;60.224;24.712;2023-05-09T06:30:11;5;3;
80643;PMS5003;70010;60.224;24.712;2023-05-09T06:32:36;4;4;
80643;PMS5003;70010;60.224;24.712;2023-05-09T06:35:02;4;3;
80643;PMS5003;70010;60.224;24.712;2023-05-09T06:37:31;5;5;
80643;PMS5003;70010;60.224;24.712;2023-05-09T06:39:53;8;7;
80643;PMS5003;70010;60.224;24.712;2023-05-09T06:42:18;6;5;
80643;PMS5003;70010;60.224;24.712;2023-05-09T06:44:43;4;4;
80643;PMS5003;70010;60.224;24.712;2023-05-09T06:47:08;6;5;
80643;PMS5003;70010;60.224;24.712;2023-05-09T06:49:34;4;4;
80643;PMS5003;70010;60.224;24.712;2023-05-09T06:51:59;5;5;
80643;PMS5003;70010;60.224;24.712;2023-05-09T06:54:25;5;5;
80643;PMS5003;70010;60.224;24.712;2023-05-09T06:56:50;3;3;
80643;PMS5003;70010;60.224;24.712;2023-05-09T06:59:15;5;5;
80643;PMS5003;70010;60.224;24.712;2023-05-09T07:01:41;7;5;
80643;PMS5003;70010;60.224;24.712;2023-05-09T07:04:06;5;5;
80643;PMS5003;70010;60.224;24.712;2023-05-09T07:06:31;6;5;
80643;PMS5003;70010;60.224;24.712;2023-05-09T07:08:57;4;4;
80643;PMS5003;70010;60.224;24.712;2023-05-09T07:11:22;6;4;
80643;PMS5003;70010;60.224;24.712;2023-05-09T07:13:47;3;3;
80643;PMS5003;70010;60.224;24.712;2023-05-09T07:16:13;6;3;
80643;PMS5003;70010;60.224;24.712;2023-05-09T07:18:38;3;3;
80643;PMS5003;70010;60.224;24.712;2023-05-09T07:21:03;5;5;
80643;PMS5003;70010;60.224;24.712;2023-05-09T07:23:29;4;4;
80643;PMS5003;70010;60.224;24.712;2023-05-09T07:25:55;6;6;
80643;PMS5003;70010;60.224;24.712;2023-05-09T07:28:19;12;7;
80643;PMS5003;70010;60.224;24.712;2023-05-09T07:30:45;7;5;
80643;PMS5003;70010;60.224;24.712;2023-05-09T07:33:10;5;3;
80643;PMS5003;70010;60.224;24.712;2023-05-09T07:35:35;6;4;
80643;PMS5003;70010;60.224;24.712;2023-05-09T07:38:01;4;4;
80643;PMS5003;70010;60.224;24.712;2023-05-09T07:40:26;5;5;
80643;PMS5003;70010;60.224;24.712;2023-05-09T07:42:51;4;4;
80643;PMS5003;70010;60.224;24.712;2023-05-09T07:45:17;4;4;
80643;PMS5003;70010;60.224;24.712;2023-05-09T07:47:42;5;5;
80643;PMS5003;70010;60.224;24.712;2023-05-09T07:50:08;8;7;
80643;PMS5003;70010;60.224;24.712;2023-05-09T07:52:33;7;6;
80643;PMS5003;70010;60.224;24.712;2023-05-09T07:54:58;7;5;
80643;PMS5003;70010;60.224;24.712;2023-05-09T07:57:24;10;7;
80643;PMS5003;70010;60.224;24.712;2023-05-09T07:59:49;6;6;
80643;PMS5003;70010;60.224;24.712;2023-05-09T08:02:15;7;7;
80643;PMS5003;70010;60.224;24.712;2023-05-09T08:04:41;6;6;
80643;PMS5003;70010;60.224;24.712;2023-05-09T08:07:06;11;8;
80643;PMS5003;70010;60.224;24.712;2023-05-09T08:09:31;4;4;
80643;PMS5003;70010;60.224;24.712;2023-05-09T08:11:57;6;4;
80643;PMS5003;70010;60.224;24.712;2023-05-09T08:14:22;4;4;
80643;PMS5003;70010;60.224;24.712;2023-05-09T08:16:48;5;5;
80643;PMS5003;70010;60.224;24.712;2023-05-09T08:19:13;7;6;
80643;PMS5003;70010;60.224;24.712;2023-05-09T08:21:39;5;5;
80643;PMS5003;70010;60.224;24.712;2023-05-09T08:24:04;8;8;
80643;PMS5003;70010;60.224;24.712;2023-05-09T08:26:29;4;3;
80643;PMS5003;70010;60.224;24.712;2023-05-09T08:28:55;4;4;
80643;PMS5003;70010;60.224;24.712;2023-05-09T08:31:20;6;6;
80643;PMS5003;70010;60.224;24.712;2023-05-09T08:33:45;8;7;
80643;PMS5003;70010;60.224;24.712;2023-05-09T08:36:11;7;6;
80643;PMS5003;70010;60.224;24.712;2023-05-09T08:38:36;7;5;
80643;PMS5003;70010;60.224;24.712;2023-05-09T08:41:01;5;5;
80643;PMS5003;70010;60.224;24.712;2023-05-09T08:43:27;6;6;
80643;PMS5003;70010;60.224;24.712;2023-05-09T08:45:53;7;6;
80643;PMS5003;70010;60.224;24.712;2023-05-09T08:48:19;6;6;
80643;PMS5003;70010;60.224;24.712;2023-05-09T08:50:43;6;6;
80643;PMS5003;70010;60.224;24.712;2023-05-09T08:53:09;7;6;
80643;PMS5003;70010;60.224;24.712;2023-05-09T08:55:34;8;8;
80643;PMS5003;70010;60.224;24.712;2023-05-09T08:57:59;9;8;
80643;PMS5003;70010;60.224;24.712;2023-05-09T09:00:25;6;6;
80643;PMS5003;70010;60.224;24.712;2023-05-09T09:02:50;9;7;
80643;PMS5003;70010;60.224;24.712;2023-05-09T09:05:15;5;5;
80643;PMS5003;70010;60.224;24.712;2023-05-09T09:07:41;10;5;
80643;PMS5003;70010;60.224;24.712;2023-05-09T09:10:06;10;8;
80643;PMS5003;70010;60.224;24.712;2023-05-09T09:12:32;10;9;
80643;PMS5003;70010;60.224;24.712;2023-05-09T09:14:58;5;5;
80643;PMS5003;70010;60.224;24.712;2023-05-09T09:17:23;4;4;
80643;PMS5003;70010;60.224;24.712;2023-05-09T09:19:48;9;9;
80643;PMS5003;70010;60.224;24.712;2023-05-09T09:22:15;11;9;
80643;PMS5003;70010;60.224;24.712;2023-05-09T09:24:39;10;7;
80643;PMS5003;70010;60.224;24.712;2023-05-09T09:27:05;7;7;
80643;PMS5003;70010;60.224;24.712;2023-05-09T09:29:30;8;8;
80643;PMS5003;70010;60.224;24.712;2023-05-09T09:31:55;6;5;
80643;PMS5003;70010;60.224;24.712;2023-05-09T09:34:21;7;5;
80643;PMS5003;70010;60.224;24.712;2023-05-09T09:36:46;9;6;
80643;PMS5003;70010;60.224;24.712;2023-05-09T09:39:11;6;5;
80643;PMS5003;70010;60.224;24.712;2023-05-09T09:41:37;6;6;
80643;PMS5003;70010;60.224;24.712;2023-05-09T09:44:06;7;5;
80643;PMS5003;70010;60.224;24.712;2023-05-09T09:46:27;9;6;
80643;PMS5003;70010;60.224;24.712;2023-05-09T09:48:52;6;6;
80643;PMS5003;70010;60.224;24.712;2023-05-09T09:51:18;7;6;
80643;PMS5003;70010;60.224;24.712;2023-05-09T09:53:43;7;7;
80643;PMS5003;70010;60.224;24.712;2023-05-09T09:56:08;6;6;
80643;PMS5003;70010;60.224;24.712;2023-05-09T09:58:34;5;5;
80643;PMS5003;70010;60.224;24.712;2023-05-09T10:03:24;7;6;
80643;PMS5003;70010;60.224;24.712;2023-05-09T10:05:50;7;7;
80643;PMS5003;70010;60.224;24.712;2023-05-09T10:08:15;5;5;
80643;PMS5003;70010;60.224;24.712;2023-05-09T10:10:40;5;5;
80643;PMS5003;70010;60.224;24.712;2023-05-09T10:13:06;6;6;
80643;PMS5003;70010;60.224;24.712;2023-05-09T10:15:31;8;7;
80643;PMS5003;70010;60.224;24.712;2023-05-09T10:17:56;8;6;
80643;PMS5003;70010;60.224;24.712;2023-05-09T10:20:21;7;6;
80643;PMS5003;70010;60.224;24.712;2023-05-09T10:22:47;5;5;
80643;PMS5003;70010;60.224;24.712;2023-05-09T10:25:13;4;4;
80643;PMS5003;70010;60.224;24.712;2023-05-09T10:27:37;8;8;
80643;PMS5003;70010;60.224;24.712;2023-05-09T10:30:05;8;8;
80643;PMS5003;70010;60.224;24.712;2023-05-09T10:32:30;6;6;
80643;PMS5003;70010;60.224;24.712;2023-05-09T10:34:56;7;6;
80643;PMS5003;70010;60.224;24.712;2023-05-09T10:37:19;10;8;
80643;PMS5003;70010;60.224;24.712;2023-05-09T10:39:44;5;5;
80643;PMS5003;70010;60.224;24.712;2023-05-09T10:42:09;6;6;
80643;PMS5003;70010;60.224;24.712;2023-05-09T10:44:35;7;5;
80643;PMS5003;70010;60.224;24.712;2023-05-09T10:47:00;6;5;
80643;PMS5003;70010;60.224;24.712;2023-05-09T10:49:25;6;6;
80643;PMS5003;70010;60.224;24.712;2023-05-09T10:51:51;7;7;
80643;PMS5003;70010;60.224;24.712;2023-05-09T10:56:41;6;5;
80643;PMS5003;70010;60.224;24.712;2023-05-09T10:59:10;8;7;
80643;PMS5003;70010;60.224;24.712;2023-05-09T11:01:33;10;8;
80643;PMS5003;70010;60.224;24.712;2023-05-09T11:03:58;7;7;
80643;PMS5003;70010;60.224;24.712;2023-05-09T11:08:48;6;6;
80643;PMS5003;70010;60.224;24.712;2023-05-09T11:13:39;6;5;
80643;PMS5003;70010;60.224;24.712;2023-05-09T11:16:07;5;5;
80643;PMS5003;70010;60.224;24.712;2023-05-09T11:18:30;5;5;
80643;PMS5003;70010;60.224;24.712;2023-05-09T11:20:55;8;8;
80643;PMS5003;70010;60.224;24.712;2023-05-09T11:23:20;6;6;
80643;PMS5003;70010;60.224;24.712;2023-05-09T11:25:46;4;4;
80643;PMS5003;70010;60.224;24.712;2023-05-09T11:28:11;8;5;
80643;PMS5003;70010;60.224;24.712;2023-05-09T11:30:37;7;7;
80643;PMS5003;70010;60.224;24.712;2023-05-09T11:33:02;7;7;
80643;PMS5003;70010;60.224;24.712;2023-05-09T11:35:27;6;6;
80643;PMS5003;70010;60.224;24.712;2023-05-09T11:37:57;7;6;
80643;PMS5003;70010;60.224;24.712;2023-05-09T11:40:18;5;5;
80643;PMS5003;70010;60.224;24.712;2023-05-09T11:42:43;7;7;
80643;PMS5003;70010;60.224;24.712;2023-05-09T11:45:09;6;6;
80643;PMS5003;70010;60.224;24.712;2023-05-09T11:47:34;5;5;
80643;PMS5003;70010;60.224;24.712;2023-05-09T11:50:00;7;5;
80643;PMS5003;70010;60.224;24.712;2023-05-09T11:52:25;8;6;
80643;PMS5003;70010;60.224;24.712;2023-05-09T11:54:50;6;5;
80643;PMS5003;70010;60.224;24.712;2023-05-09T11:57:16;5;5;
80643;PMS5003;70010;60.224;24.712;2023-05-09T11:59:42;5;5;
80643;PMS5003;70010;60.224;24.712;2023-05-09T12:02:07;6;6;
80643;PMS5003;70010;60.224;24.712;2023-05-09T12:04:32;7;7;
80643;PMS5003;70010;60.224;24.712;2023-05-09T12:06:58;5;5;
80643;PMS5003;70010;60.224;24.712;2023-05-09T12:09:23;6;6;
80643;PMS5003;70010;60.224;24.712;2023-05-09T12:11:48;5;5;
80643;PMS5003;70010;60.224;24.712;2023-05-09T12:16:43;4;4;
80643;PMS5003;70010;60.224;24.712;2023-05-09T12:19:04;5;5;
80643;PMS5003;70010;60.224;24.712;2023-05-09T12:21:29;6;5;
80643;PMS5003;70010;60.224;24.712;2023-05-09T12:23:55;5;5;
80643;PMS5003;70010;60.224;24.712;2023-05-09T12:26:20;6;6;
80643;PMS5003;70010;60.224;24.712;2023-05-09T12:28:45;7;6;
80643;PMS5003;70010;60.224;24.712;2023-05-09T12:31:10;7;6;
80643;PMS5003;70010;60.224;24.712;2023-05-09T12:33:37;9;7;
80643;PMS5003;70010;60.224;24.712;2023-05-09T12:36:03;5;5;
80643;PMS5003;70010;60.224;24.712;2023-05-09T12:38:27;5;4;
80643;PMS5003;70010;60.224;24.712;2023-05-09T12:43:17;7;4;
80643;PMS5003;70010;60.224;24.712;2023-05-09T12:45:43;3;3;
80643;PMS5003;70010;60.224;24.712;2023-05-09T12:48:09;4;4;
80643;PMS5003;70010;60.224;24.712;2023-05-09T12:50:33;5;5;
80643;PMS5003;70010;60.224;24.712;2023-05-09T12:52:59;6;4;
80643;PMS5003;70010;60.224;24.712;2023-05-09T12:55:24;6;6;
80643;PMS5003;70010;60.224;24.712;2023-05-09T13:00:16;4;4;
80643;PMS5003;70010;60.224;24.712;2023-05-09T13:02:40;5;5;
80643;PMS5003;70010;60.224;24.712;2023-05-09T13:05:06;7;7;
80643;PMS5003;70010;60.224;24.712;2023-05-09T13:09:55;5;5;
80643;PMS5003;70010;60.224;24.712;2023-05-09T13:12:21;7;6;
80643;PMS5003;70010;60.224;24.712;2023-05-09T13:14:47;6;6;
80643;PMS5003;70010;60.224;24.712;2023-05-09T13:17:12;3;3;
80643;PMS5003;70010;60.224;24.712;2023-05-09T13:19:37;4;4;
80643;PMS5003;70010;60.224;24.712;2023-05-09T13:22:02;5;5;
80643;PMS5003;70010;60.224;24.712;2023-05-09T13:24:28;5;5;
80643;PMS5003;70010;60.224;24.712;2023-05-09T13:26:53;4;3;
80643;PMS5003;70010;60.224;24.712;2023-05-09T13:29:18;3;3;
80643;PMS5003;70010;60.224;24.712;2023-05-09T13:31:44;3;3;
80643;PMS5003;70010;60.224;24.712;2023-05-09T13:34:09;4;4;
80643;PMS5003;70010;60.224;24.712;2023-05-09T13:36:34;6;5;
80643;PMS5003;70010;60.224;24.712;2023-05-09T13:39:00;6;6;
80643;PMS5003;70010;60.224;24.712;2023-05-09T13:41:25;7;7;
80643;PMS5003;70010;60.224;24.712;2023-05-09T13:43:50;5;5;
80643;PMS5003;70010;60.224;24.712;2023-05-09T13:46:16;5;5;
80643;PMS5003;70010;60.224;24.712;2023-05-09T13:48:41;5;4;
80643;PMS5003;70010;60.224;24.712;2023-05-09T13:51:06;5;5;
80643;PMS5003;70010;60.224;24.712;2023-05-09T13:53:32;5;5;
80643;PMS5003;70010;60.224;24.712;2023-05-09T13:55:57;5;5;
80643;PMS5003;70010;60.224;24.712;2023-05-09T13:58:22;4;4;
80643;PMS5003;70010;60.224;24.712;2023-05-09T14:00:47;4;4;
80643;PMS5003;70010;60.224;24.712;2023-05-09T14:03:13;4;4;
80643;PMS5003;70010;60.224;24.712;2023-05-09T14:05:38;4;4;
80643;PMS5003;70010;60.224;24.712;2023-05-09T14:08:03;5;5;
80643;PMS5003;70010;60.224;24.712;2023-05-09T14:10:29;5;5;
80643;PMS5003;70010;60.224;24.712;2023-05-09T14:12:54;6;6;
80643;PMS5003;70010;60.224;24.712;2023-05-09T14:15:20;6;6;
80643;PMS5003;70010;60.224;24.712;2023-05-09T14:17:45;5;4;
80643;PMS5003;70010;60.224;24.712;2023-05-09T14:20:11;5;5;
80643;PMS5003;70010;60.224;24.712;2023-05-09T14:22:35;3;3;
80643;PMS5003;70010;60.224;24.712;2023-05-09T14:25:01;5;5;
80643;PMS5003;70010;60.224;24.712;2023-05-09T14:27:26;6;6;
80643;PMS5003;70010;60.224;24.712;2023-05-09T14:29:51;5;5;
80643;PMS5003;70010;60.224;24.712;2023-05-09T14:32:17;5;5;
80643;PMS5003;70010;60.224;24.712;2023-05-09T14:34:42;5;5;
80643;PMS5003;70010;60.224;24.712;2023-05-09T14:37:07;6;6;
80643;PMS5003;70010;60.224;24.712;2023-05-09T14:39:32;4;4;
80643;PMS5003;70010;60.224;24.712;2023-05-09T14:41:58;6;6;
80643;PMS5003;70010;60.224;24.712;2023-05-09T14:44:23;6;6;
80643;PMS5003;70010;60.224;24.712;2023-05-09T14:46:48;7;6;
80643;PMS5003;70010;60.224;24.712;2023-05-09T14:49:14;5;5;
80643;PMS5003;70010;60.224;24.712;2023-05-09T14:51:39;6;4;
80643;PMS5003;70010;60.224;24.712;2023-05-09T14:54:05;3;3;
80643;PMS5003;70010;60.224;24.712;2023-05-09T14:56:31;6;6;
80643;PMS5003;70010;60.224;24.712;2023-05-09T14:58:56;6;5;
80643;PMS5003;70010;60.224;24.712;2023-05-09T15:01:21;6;6;
80643;PMS5003;70010;60.224;24.712;2023-05-09T15:03:46;6;6;
80643;PMS5003;70010;60.224;24.712;2023-05-09T15:06:12;5;5;
80643;PMS5003;70010;60.224;24.712;2023-05-09T15:08:37;7;4;
80643;PMS5003;70010;60.224;24.712;2023-05-09T15:11:03;6;6;
80643;PMS5003;70010;60.224;24.712;2023-05-09T15:13:29;4;4;
80643;PMS5003;70010;60.224;24.712;2023-05-09T15:15:54;5;5;
80643;PMS5003;70010;60.224;24.712;2023-05-09T15:18:19;6;6;
80643;PMS5003;70010;60.224;24.712;2023-05-09T15:20:44;7;7;
80643;PMS5003;70010;60.224;24.712;2023-05-09T15:23:10;7;7;
80643;PMS5003;70010;60.224;24.712;2023-05-09T15:25:35;5;5;
80643;PMS5003;70010;60.224;24.712;2023-05-09T15:28:00;6;6;
80643;PMS5003;70010;60.224;24.712;2023-05-09T15:30:26;8;7;
80643;PMS5003;70010;60.224;24.712;2023-05-09T15:32:51;8;5;
80643;PMS5003;70010;60.224;24.712;2023-05-09T15:35:16;4;4;
80643;PMS5003;70010;60.224;24.712;2023-05-09T15:37:42;5;5;
80643;PMS5003;70010;60.224;24.712;2023-05-09T15:40:07;4;4;
80643;PMS5003;70010;60.224;24.712;2023-05-09T15:42:32;5;5;
80643;PMS5003;70010;60.224;24.712;2023-05-09T15:44:58;8;7;
80643;PMS5003;70010;60.224;24.712;2023-05-09T15:47:23;5;5;
80643;PMS5003;70010;60.224;24.712;2023-05-09T15:49:48;5;5;
80643;PMS5003;70010;60.224;24.712;2023-05-09T15:52:14;7;5;
80643;PMS5003;70010;60.224;24.712;2023-05-09T15:54:39;4;4;
80643;PMS5003;70010;60.224;24.712;2023-05-09T15:57:04;5;5;
80643;PMS5003;70010;60.224;24.712;2023-05-09T15:59:29;3;3;
80643;PMS5003;70010;60.224;24.712;2023-05-09T16:01:55;6;6;
80643;PMS5003;70010;60.224;24.712;2023-05-09T16:04:21;5;5;
80643;PMS5003;70010;60.224;24.712;2023-05-09T16:06:46;4;4;
80643;PMS5003;70010;60.224;24.712;2023-05-09T16:09:11;4;4;
80643;PMS5003;70010;60.224;24.712;2023-05-09T16:11:36;5;5;
80643;PMS5003;70010;60.224;24.712;2023-05-09T16:14:02;7;5;
80643;PMS5003;70010;60.224;24.712;2023-05-09T16:16:27;7;6;
80643;PMS5003;70010;60.224;24.712;2023-05-09T16:18:52;4;4;
80643;PMS5003;70010;60.224;24.712;2023-05-09T16:21:18;5;5;
80643;PMS5003;70010;60.224;24.712;2023-05-09T16:23:43;7;5;
80643;PMS5003;70010;60.224;24.712;2023-05-09T16:26:08;8;7;
80643;PMS5003;70010;60.224;24.712;2023-05-09T16:28:33;8;6;
80643;PMS5003;70010;60.224;24.712;2023-05-09T16:30:59;4;4;
80643;PMS5003;70010;60.224;24.712;2023-05-09T16:33:24;6;6;
80643;PMS5003;70010;60.224;24.712;2023-05-09T16:35:49;7;6;